Accueil
METAR-TAF:

METAR-TAF

Aéroports :

Cazaux, France

Base aérienne 120 Cazaux

latitude: 44-32N, longitude: 001-08W, altitude: 25 m

Observation

Le bulletin a été fait il y a 16 minutes, à 16:30 UTC
Vent 11 kt de nord
Température 8°C
Humidité 34%
Pression 1012 hPa
Visibilité 10 km ou plus
pas de nuages en-dessous de 1500 mètres et pas de cumulonimbus.

METAR: LFBC 221630Z AUTO 35011KT CAVOK 08/M07 Q1012 NOSIG

Heure: 17:46 (16:46 UTC)

Prévision

Le bulletin a été fait il y a 2 heures et 46 minutes, à 14:00 UTC
Prévision valable du 22 à 15 UTC au 23 à 15 UTC
Vent 8 kt de nord
Visibilité 10 km ou plus
pas de nuages en-dessous de 1500 mètres et pas de cumulonimbus.
Probabilité 30% :
Temporairement
du 22 à 23 UTC au 23 à 08 UTC
Visibilité: 3000 m
brume

TAF: LFBC 221400Z 2215/2315 01008KT CAVOK PROB30 TEMPO 2223/2308 3000 BR

Observations et prévisions météorologiques de plus de 4000 aéroports (messages METAR et TAF).

Les stations disponibles sont représentées par des disques jaunes et rouges sur la carte.

Passer la souris dessus pour voir le nom de la station.

Cliquer dessus pour voir les observations et prévisions météorologiques.

Pour changer de carte: cliquez sur les boutons verts avec une croix noire pour zoomer, sur le bouton vert avec un tiret pour effectuer un zoom arrière, ou sur les flèches vertes pour les cartes adjacentes.


METAR-TAF: